sensor_id;sensor_type;location;lat;lon;timestamp;temperature;humidity
20139;DHT22;10230;51.502;10.800;2023-05-07T00:01:39;11.00;99.90
20139;DHT22;10230;51.502;10.800;2023-05-07T00:04:04;11.00;99.90
20139;DHT22;10230;51.502;10.800;2023-05-07T00:06:31;11.00;99.90
20139;DHT22;10230;51.502;10.800;2023-05-07T00:08:57;11.00;99.90
20139;DHT22;10230;51.502;10.800;2023-05-07T00:11:23;11.00;99.90
20139;DHT22;10230;51.502;10.800;2023-05-07T00:13:49;11.00;99.90
20139;DHT22;10230;51.502;10.800;2023-05-07T00:16:14;11.00;99.90
20139;DHT22;10230;51.502;10.800;2023-05-07T00:18:40;11.00;99.90
20139;DHT22;10230;51.502;10.800;2023-05-07T00:21:06;11.00;99.90
20139;DHT22;10230;51.502;10.800;2023-05-07T00:23:31;11.00;99.90
20139;DHT22;10230;51.502;10.800;2023-05-07T00:25:57;11.00;99.90
20139;DHT22;10230;51.502;10.800;2023-05-07T00:28:23;10.90;99.90
20139;DHT22;10230;51.502;10.800;2023-05-07T00:30:48;10.90;99.90
20139;DHT22;10230;51.502;10.800;2023-05-07T00:33:14;10.80;99.90
20139;DHT22;10230;51.502;10.800;2023-05-07T00:35:39;10.80;99.90
20139;DHT22;10230;51.502;10.800;2023-05-07T00:38:05;10.70;99.90
20139;DHT22;10230;51.502;10.800;2023-05-07T00:40:31;10.70;99.90
20139;DHT22;10230;51.502;10.800;2023-05-07T00:42:56;10.70;99.90
20139;DHT22;10230;51.502;10.800;2023-05-07T00:45:27;10.60;99.90
20139;DHT22;10230;51.502;10.800;2023-05-07T00:47:58;10.60;99.90
20139;DHT22;10230;51.502;10.800;2023-05-07T00:50:25;10.40;99.90
20139;DHT22;10230;51.502;10.800;2023-05-07T00:52:51;10.40;99.90
20139;DHT22;10230;51.502;10.800;2023-05-07T00:55:17;10.30;99.90
20139;DHT22;10230;51.502;10.800;2023-05-07T00:57:44;10.30;99.90
20139;DHT22;10230;51.502;10.800;2023-05-07T01:00:10;10.30;99.90
20139;DHT22;10230;51.502;10.800;2023-05-07T01:02:38;10.20;99.90
20139;DHT22;10230;51.502;10.800;2023-05-07T01:05:05;10.20;99.90
20139;DHT22;10230;51.502;10.800;2023-05-07T01:07:33;10.20;99.90
20139;DHT22;10230;51.502;10.800;2023-05-07T01:10:00;10.20;99.90
20139;DHT22;10230;51.502;10.800;2023-05-07T01:12:27;10.10;99.90
20139;DHT22;10230;51.502;10.800;2023-05-07T01:14:53;10.10;99.90
20139;DHT22;10230;51.502;10.800;2023-05-07T01:17:19;10.10;99.90
20139;DHT22;10230;51.502;10.800;2023-05-07T01:19:45;10.10;99.90
20139;DHT22;10230;51.502;10.800;2023-05-07T01:22:15;10.10;99.90
20139;DHT22;10230;51.502;10.800;2023-05-07T01:24:42;10.10;99.90
20139;DHT22;10230;51.502;10.800;2023-05-07T01:27:08;10.10;99.90
20139;DHT22;10230;51.502;10.800;2023-05-07T01:29:34;10.10;99.90
20139;DHT22;10230;51.502;10.800;2023-05-07T01:32:01;10.10;99.90
20139;DHT22;10230;51.502;10.800;2023-05-07T01:34:31;10.20;99.90
20139;DHT22;10230;51.502;10.800;2023-05-07T01:36:58;10.20;99.90
20139;DHT22;10230;51.502;10.800;2023-05-07T01:39:26;10.20;99.90
20139;DHT22;10230;51.502;10.800;2023-05-07T01:41:54;10.10;99.90
20139;DHT22;10230;51.502;10.800;2023-05-07T01:44:21;10.10;99.90
20139;DHT22;10230;51.502;10.800;2023-05-07T01:46:47;10.20;99.90
20139;DHT22;10230;51.502;10.800;2023-05-07T01:49:14;10.20;99.90
20139;DHT22;10230;51.502;10.800;2023-05-07T01:51:40;10.20;99.90
20139;DHT22;10230;51.502;10.800;2023-05-07T01:54:05;10.30;99.90
20139;DHT22;10230;51.502;10.800;2023-05-07T01:56:32;10.30;99.90
20139;DHT22;10230;51.502;10.800;2023-05-07T01:58:57;10.30;99.90
20139;DHT22;10230;51.502;10.800;2023-05-07T02:01:23;10.40;99.90
20139;DHT22;10230;51.502;10.800;2023-05-07T02:03:49;10.50;99.90
20139;DHT22;10230;51.502;10.800;2023-05-07T02:06:14;10.50;99.90
20139;DHT22;10230;51.502;10.800;2023-05-07T02:08:40;10.60;99.90
20139;DHT22;10230;51.502;10.800;2023-05-07T02:11:06;10.60;99.90
20139;DHT22;10230;51.502;10.800;2023-05-07T02:13:33;10.60;99.90
20139;DHT22;10230;51.502;10.800;2023-05-07T02:16:00;10.60;99.90
20139;DHT22;10230;51.502;10.800;2023-05-07T02:18:25;10.70;99.90
20139;DHT22;10230;51.502;10.800;2023-05-07T02:20:52;10.70;99.90
20139;DHT22;10230;51.502;10.800;2023-05-07T02:23:17;10.70;99.90
20139;DHT22;10230;51.502;10.800;2023-05-07T02:25:43;10.70;99.90
20139;DHT22;10230;51.502;10.800;2023-05-07T02:28:09;10.70;99.90
20139;DHT22;10230;51.502;10.800;2023-05-07T02:30:36;10.60;99.90
20139;DHT22;10230;51.502;10.800;2023-05-07T02:33:02;10.60;99.90
20139;DHT22;10230;51.502;10.800;2023-05-07T02:35:28;10.60;99.90
20139;DHT22;10230;51.502;10.800;2023-05-07T02:37:53;10.60;99.90
20139;DHT22;10230;51.502;10.800;2023-05-07T02:40:19;10.60;99.90
20139;DHT22;10230;51.502;10.800;2023-05-07T02:42:44;10.60;99.90
20139;DHT22;10230;51.502;10.800;2023-05-07T02:45:10;10.50;99.90
20139;DHT22;10230;51.502;10.800;2023-05-07T02:47:36;10.60;99.90
20139;DHT22;10230;51.502;10.800;2023-05-07T02:50:02;10.60;99.90
20139;DHT22;10230;51.502;10.800;2023-05-07T02:52:28;10.50;99.90
20139;DHT22;10230;51.502;10.800;2023-05-07T02:54:53;10.50;99.90
20139;DHT22;10230;51.502;10.800;2023-05-07T02:57:19;10.50;99.90
20139;DHT22;10230;51.502;10.800;2023-05-07T02:59:45;10.40;99.90
20139;DHT22;10230;51.502;10.800;2023-05-07T03:02:10;10.30;99.90
20139;DHT22;10230;51.502;10.800;2023-05-07T03:04:36;10.30;99.90
20139;DHT22;10230;51.502;10.800;2023-05-07T03:07:01;10.30;99.90
20139;DHT22;10230;51.502;10.800;2023-05-07T03:09:27;10.30;99.90
20139;DHT22;10230;51.502;10.800;2023-05-07T03:11:53;10.30;99.90
20139;DHT22;10230;51.502;10.800;2023-05-07T03:14:18;10.30;99.90
20139;DHT22;10230;51.502;10.800;2023-05-07T03:16:44;10.40;99.90
20139;DHT22;10230;51.502;10.800;2023-05-07T03:19:10;10.40;99.90
20139;DHT22;10230;51.502;10.800;2023-05-07T03:21:35;10.40;99.90
20139;DHT22;10230;51.502;10.800;2023-05-07T03:24:01;10.40;99.90
20139;DHT22;10230;51.502;10.800;2023-05-07T03:26:26;10.50;99.90
20139;DHT22;10230;51.502;10.800;2023-05-07T03:28:52;10.40;99.90
20139;DHT22;10230;51.502;10.800;2023-05-07T03:31:18;10.50;99.90
20139;DHT22;10230;51.502;10.800;2023-05-07T03:33:54;10.50;99.90
20139;DHT22;10230;51.502;10.800;2023-05-07T03:36:20;10.50;99.90
20139;DHT22;10230;51.502;10.800;2023-05-07T03:38:47;10.50;99.90
20139;DHT22;10230;51.502;10.800;2023-05-07T03:41:13;10.50;99.90
20139;DHT22;10230;51.502;10.800;2023-05-07T03:43:39;10.40;99.90
20139;DHT22;10230;51.502;10.800;2023-05-07T03:46:04;10.40;99.90
20139;DHT22;10230;51.502;10.800;2023-05-07T03:48:30;10.40;99.90
20139;DHT22;10230;51.502;10.800;2023-05-07T03:50:57;10.40;99.90
20139;DHT22;10230;51.502;10.800;2023-05-07T03:53:23;10.40;99.90
20139;DHT22;10230;51.502;10.800;2023-05-07T03:55:48;10.40;99.90
20139;DHT22;10230;51.502;10.800;2023-05-07T03:58:15;10.40;99.90
20139;DHT22;10230;51.502;10.800;2023-05-07T04:00:41;10.40;99.90
20139;DHT22;10230;51.502;10.800;2023-05-07T04:03:06;10.40;99.90
20139;DHT22;10230;51.502;10.800;2023-05-07T04:05:32;10.40;99.90
20139;DHT22;10230;51.502;10.800;2023-05-07T04:07:59;10.30;99.90
20139;DHT22;10230;51.502;10.800;2023-05-07T04:10:25;10.30;99.90
20139;DHT22;10230;51.502;10.800;2023-05-07T04:12:50;10.30;99.90
20139;DHT22;10230;51.502;10.800;2023-05-07T04:15:16;10.30;99.90
20139;DHT22;10230;51.502;10.800;2023-05-07T04:17:42;10.30;99.90
20139;DHT22;10230;51.502;10.800;2023-05-07T04:20:15;10.40;99.90
20139;DHT22;10230;51.502;10.800;2023-05-07T04:22:41;10.40;99.90
20139;DHT22;10230;51.502;10.800;2023-05-07T04:25:08;10.40;99.90
20139;DHT22;10230;51.502;10.800;2023-05-07T04:27:34;10.40;99.90
20139;DHT22;10230;51.502;10.800;2023-05-07T04:30:00;10.40;99.90
20139;DHT22;10230;51.502;10.800;2023-05-07T04:32:26;10.40;99.90
20139;DHT22;10230;51.502;10.800;2023-05-07T04:34:52;10.50;99.90
20139;DHT22;10230;51.502;10.800;2023-05-07T04:37:17;10.50;99.90
20139;DHT22;10230;51.502;10.800;2023-05-07T04:39:43;10.50;99.90
20139;DHT22;10230;51.502;10.800;2023-05-07T04:42:09;10.50;99.90
20139;DHT22;10230;51.502;10.800;2023-05-07T04:44:35;10.50;99.90
20139;DHT22;10230;51.502;10.800;2023-05-07T04:47:02;10.50;99.90
20139;DHT22;10230;51.502;10.800;2023-05-07T04:49:28;10.50;99.90
20139;DHT22;10230;51.502;10.800;2023-05-07T04:51:53;10.50;99.90
20139;DHT22;10230;51.502;10.800;2023-05-07T04:54:19;10.50;99.90
20139;DHT22;10230;51.502;10.800;2023-05-07T04:56:45;10.50;99.90
20139;DHT22;10230;51.502;10.800;2023-05-07T04:59:11;10.50;99.90
20139;DHT22;10230;51.502;10.800;2023-05-07T05:01:36;10.50;99.90
20139;DHT22;10230;51.502;10.800;2023-05-07T05:04:02;10.50;99.90
20139;DHT22;10230;51.502;10.800;2023-05-07T05:06:28;10.50;99.90
20139;DHT22;10230;51.502;10.800;2023-05-07T05:08:54;10.50;99.90
20139;DHT22;10230;51.502;10.800;2023-05-07T05:11:19;10.50;99.90
20139;DHT22;10230;51.502;10.800;2023-05-07T05:13:46;10.50;99.90
20139;DHT22;10230;51.502;10.800;2023-05-07T05:16:14;10.50;99.90
20139;DHT22;10230;51.502;10.800;2023-05-07T05:18:40;10.50;99.90
20139;DHT22;10230;51.502;10.800;2023-05-07T05:21:05;10.50;99.90
20139;DHT22;10230;51.502;10.800;2023-05-07T05:23:31;10.50;99.90
20139;DHT22;10230;51.502;10.800;2023-05-07T05:25:57;10.50;99.90
20139;DHT22;10230;51.502;10.800;2023-05-07T05:28:24;10.50;99.90
20139;DHT22;10230;51.502;10.800;2023-05-07T05:30:50;10.40;99.90
20139;DHT22;10230;51.502;10.800;2023-05-07T05:33:16;10.30;99.90
20139;DHT22;10230;51.502;10.800;2023-05-07T05:35:42;10.30;99.90
20139;DHT22;10230;51.502;10.800;2023-05-07T05:38:08;10.10;99.90
20139;DHT22;10230;51.502;10.800;2023-05-07T05:40:34;10.10;99.90
20139;DHT22;10230;51.502;10.800;2023-05-07T05:42:59;10.00;99.90
20139;DHT22;10230;51.502;10.800;2023-05-07T05:45:25;9.90;99.90
20139;DHT22;10230;51.502;10.800;2023-05-07T05:47:51;9.90;99.90
20139;DHT22;10230;51.502;10.800;2023-05-07T05:50:17;9.90;99.90
20139;DHT22;10230;51.502;10.800;2023-05-07T05:52:42;10.00;99.90
20139;DHT22;10230;51.502;10.800;2023-05-07T05:55:08;10.00;99.90
20139;DHT22;10230;51.502;10.800;2023-05-07T05:57:34;10.00;99.90
20139;DHT22;10230;51.502;10.800;2023-05-07T06:00:01;10.00;99.90
20139;DHT22;10230;51.502;10.800;2023-05-07T06:02:27;10.00;99.90
20139;DHT22;10230;51.502;10.800;2023-05-07T06:04:53;10.10;99.90
20139;DHT22;10230;51.502;10.800;2023-05-07T06:07:19;10.10;99.90
20139;DHT22;10230;51.502;10.800;2023-05-07T06:09:45;10.20;99.90
20139;DHT22;10230;51.502;10.800;2023-05-07T06:12:11;10.20;99.90
20139;DHT22;10230;51.502;10.800;2023-05-07T06:26:52;10.50;99.90
20139;DHT22;10230;51.502;10.800;2023-05-07T06:29:18;10.60;99.90
20139;DHT22;10230;51.502;10.800;2023-05-07T06:31:44;10.60;99.90
20139;DHT22;10230;51.502;10.800;2023-05-07T06:34:09;10.60;99.90
20139;DHT22;10230;51.502;10.800;2023-05-07T06:36:35;10.70;99.90
20139;DHT22;10230;51.502;10.800;2023-05-07T06:39:01;10.80;99.90
20139;DHT22;10230;51.502;10.800;2023-05-07T06:41:27;10.90;99.90
20139;DHT22;10230;51.502;10.800;2023-05-07T06:43:52;10.90;99.90
20139;DHT22;10230;51.502;10.800;2023-05-07T06:46:18;10.90;99.90
20139;DHT22;10230;51.502;10.800;2023-05-07T06:48:44;10.90;99.90
20139;DHT22;10230;51.502;10.800;2023-05-07T06:51:09;10.90;99.90
20139;DHT22;10230;51.502;10.800;2023-05-07T06:53:35;10.80;99.90
20139;DHT22;10230;51.502;10.800;2023-05-07T06:56:01;10.80;99.90
20139;DHT22;10230;51.502;10.800;2023-05-07T06:58:26;10.80;99.90
20139;DHT22;10230;51.502;10.800;2023-05-07T07:00:52;10.80;99.90
20139;DHT22;10230;51.502;10.800;2023-05-07T07:03:17;10.70;99.90
20139;DHT22;10230;51.502;10.800;2023-05-07T07:05:43;10.70;99.90
20139;DHT22;10230;51.502;10.800;2023-05-07T07:08:10;10.60;99.90
20139;DHT22;10230;51.502;10.800;2023-05-07T07:10:35;10.60;99.90
20139;DHT22;10230;51.502;10.800;2023-05-07T07:15:27;10.70;99.90
20139;DHT22;10230;51.502;10.800;2023-05-07T07:17:52;10.70;99.90
20139;DHT22;10230;51.502;10.800;2023-05-07T07:20:18;10.80;99.90
20139;DHT22;10230;51.502;10.800;2023-05-07T07:22:44;10.80;99.90
20139;DHT22;10230;51.502;10.800;2023-05-07T07:25:10;10.90;99.90
20139;DHT22;10230;51.502;10.800;2023-05-07T07:27:36;10.90;99.90
20139;DHT22;10230;51.502;10.800;2023-05-07T07:30:03;10.80;99.90
20139;DHT22;10230;51.502;10.800;2023-05-07T07:32:28;10.70;99.90
20139;DHT22;10230;51.502;10.800;2023-05-07T07:34:54;10.60;99.90
20139;DHT22;10230;51.502;10.800;2023-05-07T07:37:20;10.50;99.90
20139;DHT22;10230;51.502;10.800;2023-05-07T07:39:45;10.50;99.90
20139;DHT22;10230;51.502;10.800;2023-05-07T07:42:11;10.60;99.90
20139;DHT22;10230;51.502;10.800;2023-05-07T07:44:37;10.70;99.90
20139;DHT22;10230;51.502;10.800;2023-05-07T07:47:02;10.70;99.90
20139;DHT22;10230;51.502;10.800;2023-05-07T07:49:28;10.80;99.90
20139;DHT22;10230;51.502;10.800;2023-05-07T07:51:53;10.80;99.90
20139;DHT22;10230;51.502;10.800;2023-05-07T07:54:19;10.80;99.90
20139;DHT22;10230;51.502;10.800;2023-05-07T07:56:45;10.80;99.90
20139;DHT22;10230;51.502;10.800;2023-05-07T07:59:10;10.90;99.90
20139;DHT22;10230;51.502;10.800;2023-05-07T08:01:36;10.90;99.90
20139;DHT22;10230;51.502;10.800;2023-05-07T08:04:02;10.90;99.90
20139;DHT22;10230;51.502;10.800;2023-05-07T08:06:29;11.00;99.90
20139;DHT22;10230;51.502;10.800;2023-05-07T08:21:06;11.10;99.90
20139;DHT22;10230;51.502;10.800;2023-05-07T08:23:32;11.20;99.90
20139;DHT22;10230;51.502;10.800;2023-05-07T08:38:13;11.90;99.90
20139;DHT22;10230;51.502;10.800;2023-05-07T08:40:39;11.80;99.90
20139;DHT22;10230;51.502;10.800;2023-05-07T08:43:06;11.80;99.90
20139;DHT22;10230;51.502;10.800;2023-05-07T08:45:37;12.00;99.90
20139;DHT22;10230;51.502;10.800;2023-05-07T08:55:28;12.80;99.90
20139;DHT22;10230;51.502;10.800;2023-05-07T08:57:54;13.00;99.90
20139;DHT22;10230;51.502;10.800;2023-05-07T09:00:20;13.30;99.90
20139;DHT22;10230;51.502;10.800;2023-05-07T09:02:46;13.40;99.90
20139;DHT22;10230;51.502;10.800;2023-05-07T09:05:11;13.50;99.90
20139;DHT22;10230;51.502;10.800;2023-05-07T09:07:37;13.50;99.90
20139;DHT22;10230;51.502;10.800;2023-05-07T09:12:30;13.90;99.90
20139;DHT22;10230;51.502;10.800;2023-05-07T09:14:56;13.90;99.90
20139;DHT22;10230;51.502;10.800;2023-05-07T09:17:21;13.90;99.90
20139;DHT22;10230;51.502;10.800;2023-05-07T09:19:47;13.90;99.90
20139;DHT22;10230;51.502;10.800;2023-05-07T09:22:13;13.80;99.90
20139;DHT22;10230;51.502;10.800;2023-05-07T09:24:39;13.70;99.90
20139;DHT22;10230;51.502;10.800;2023-05-07T09:27:05;13.50;99.90
20139;DHT22;10230;51.502;10.800;2023-05-07T09:29:31;13.40;99.90
20139;DHT22;10230;51.502;10.800;2023-05-07T09:32:04;13.40;99.90
20139;DHT22;10230;51.502;10.800;2023-05-07T09:34:30;13.30;99.90
20139;DHT22;10230;51.502;10.800;2023-05-07T09:37:00;13.20;99.90
20139;DHT22;10230;51.502;10.800;2023-05-07T09:39:26;13.10;99.90
20139;DHT22;10230;51.502;10.800;2023-05-07T09:41:52;13.10;99.90
20139;DHT22;10230;51.502;10.800;2023-05-07T09:44:20;13.10;99.90
20139;DHT22;10230;51.502;10.800;2023-05-07T09:46:50;13.20;99.90
20139;DHT22;10230;51.502;10.800;2023-05-07T09:49:22;13.40;99.90
20139;DHT22;10230;51.502;10.800;2023-05-07T09:51:50;13.60;99.90
20139;DHT22;10230;51.502;10.800;2023-05-07T09:54:17;13.70;99.90
20139;DHT22;10230;51.502;10.800;2023-05-07T09:56:44;13.60;99.90
20139;DHT22;10230;51.502;10.800;2023-05-07T09:59:13;13.60;99.90
20139;DHT22;10230;51.502;10.800;2023-05-07T10:01:43;13.40;99.90
20139;DHT22;10230;51.502;10.800;2023-05-07T10:04:10;13.30;99.90
20139;DHT22;10230;51.502;10.800;2023-05-07T10:06:37;13.10;99.90
20139;DHT22;10230;51.502;10.800;2023-05-07T10:09:03;13.10;99.90
20139;DHT22;10230;51.502;10.800;2023-05-07T10:11:32;13.10;99.90
20139;DHT22;10230;51.502;10.800;2023-05-07T10:13:59;12.90;99.90
20139;DHT22;10230;51.502;10.800;2023-05-07T10:16:28;12.80;99.90
20139;DHT22;10230;51.502;10.800;2023-05-07T10:18:58;12.70;99.90
20139;DHT22;10230;51.502;10.800;2023-05-07T10:21:24;12.80;99.90
20139;DHT22;10230;51.502;10.800;2023-05-07T10:24:04;12.80;99.90
20139;DHT22;10230;51.502;10.800;2023-05-07T10:26:36;12.80;99.90
20139;DHT22;10230;51.502;10.800;2023-05-07T10:29:12;13.10;99.90
20139;DHT22;10230;51.502;10.800;2023-05-07T10:31:52;13.20;99.90
20139;DHT22;10230;51.502;10.800;2023-05-07T10:34:36;13.10;99.90
20139;DHT22;10230;51.502;10.800;2023-05-07T10:37:03;13.10;99.90
20139;DHT22;10230;51.502;10.800;2023-05-07T10:39:29;13.10;99.90
20139;DHT22;10230;51.502;10.800;2023-05-07T10:41:56;13.00;99.90
20139;DHT22;10230;51.502;10.800;2023-05-07T10:44:26;12.90;99.90
20139;DHT22;10230;51.502;10.800;2023-05-07T10:49:30;13.00;99.90
20139;DHT22;10230;51.502;10.800;2023-05-07T10:52:15;13.40;99.90
20139;DHT22;10230;51.502;10.800;2023-05-07T10:54:42;13.60;99.90
20139;DHT22;10230;51.502;10.800;2023-05-07T10:59:56;13.90;99.90
20139;DHT22;10230;51.502;10.800;2023-05-07T11:02:21;14.10;99.90
20139;DHT22;10230;51.502;10.800;2023-05-07T11:05:22;14.30;99.90
20139;DHT22;10230;51.502;10.800;2023-05-07T11:07:59;14.50;99.90
20139;DHT22;10230;51.502;10.800;2023-05-07T11:11:02;14.60;99.90
20139;DHT22;10230;51.502;10.800;2023-05-07T11:13:49;14.60;99.90
20139;DHT22;10230;51.502;10.800;2023-05-07T11:16:22;14.60;99.90
20139;DHT22;10230;51.502;10.800;2023-05-07T11:18:54;14.60;99.90
20139;DHT22;10230;51.502;10.800;2023-05-07T11:21:39;14.70;99.90
20139;DHT22;10230;51.502;10.800;2023-05-07T11:24:09;14.90;99.90
20139;DHT22;10230;51.502;10.800;2023-05-07T11:27:02;14.90;99.90
20139;DHT22;10230;51.502;10.800;2023-05-07T11:29:27;14.70;99.90
20139;DHT22;10230;51.502;10.800;2023-05-07T11:31:55;14.60;99.90
20139;DHT22;10230;51.502;10.800;2023-05-07T11:34:26;14.50;99.90
20139;DHT22;10230;51.502;10.800;2023-05-07T11:36:52;14.30;99.90
20139;DHT22;10230;51.502;10.800;2023-05-07T11:39:31;14.40;99.90
20139;DHT22;10230;51.502;10.800;2023-05-07T11:41:59;14.70;99.90
20139;DHT22;10230;51.502;10.800;2023-05-07T11:44:25;14.90;99.90
20139;DHT22;10230;51.502;10.800;2023-05-07T11:47:04;14.90;99.90
20139;DHT22;10230;51.502;10.800;2023-05-07T11:49:30;15.10;99.90
20139;DHT22;10230;51.502;10.800;2023-05-07T11:51:56;15.10;99.90
20139;DHT22;10230;51.502;10.800;2023-05-07T11:56:49;15.50;99.90
20139;DHT22;10230;51.502;10.800;2023-05-07T11:59:17;15.70;99.90
20139;DHT22;10230;51.502;10.800;2023-05-07T12:01:45;16.00;99.90
20139;DHT22;10230;51.502;10.800;2023-05-07T12:04:11;16.10;99.90
20139;DHT22;10230;51.502;10.800;2023-05-07T12:06:37;16.20;99.90
20139;DHT22;10230;51.502;10.800;2023-05-07T12:09:04;16.60;99.90
20139;DHT22;10230;51.502;10.800;2023-05-07T12:11:30;16.60;99.90
20139;DHT22;10230;51.502;10.800;2023-05-07T12:13:56;16.60;99.90
20139;DHT22;10230;51.502;10.800;2023-05-07T12:16:21;16.40;99.90
20139;DHT22;10230;51.502;10.800;2023-05-07T12:18:47;16.20;99.90
20139;DHT22;10230;51.502;10.800;2023-05-07T12:21:13;16.20;99.90
20139;DHT22;10230;51.502;10.800;2023-05-07T12:23:40;16.10;99.90
20139;DHT22;10230;51.502;10.800;2023-05-07T12:26:05;16.10;99.90
20139;DHT22;10230;51.502;10.800;2023-05-07T12:28:36;16.30;99.90
20139;DHT22;10230;51.502;10.800;2023-05-07T12:31:03;16.50;99.90
20139;DHT22;10230;51.502;10.800;2023-05-07T12:33:29;16.40;99.90
20139;DHT22;10230;51.502;10.800;2023-05-07T12:35:56;16.50;99.90
20139;DHT22;10230;51.502;10.800;2023-05-07T12:38:22;16.50;99.90
20139;DHT22;10230;51.502;10.800;2023-05-07T12:40:49;16.60;99.90
20139;DHT22;10230;51.502;10.800;2023-05-07T12:45:45;16.70;99.90
20139;DHT22;10230;51.502;10.800;2023-05-07T12:48:12;16.80;99.90
20139;DHT22;10230;51.502;10.800;2023-05-07T12:50:38;16.70;99.90
20139;DHT22;10230;51.502;10.800;2023-05-07T12:53:04;16.60;99.90
20139;DHT22;10230;51.502;10.800;2023-05-07T12:55:31;16.50;99.90
20139;DHT22;10230;51.502;10.800;2023-05-07T12:58:00;16.50;99.90
20139;DHT22;10230;51.502;10.800;2023-05-07T13:00:37;16.40;99.90
20139;DHT22;10230;51.502;10.800;2023-05-07T13:03:03;16.30;99.90
20139;DHT22;10230;51.502;10.800;2023-05-07T13:05:29;17.20;99.90
20139;DHT22;10230;51.502;10.800;2023-05-07T13:07:56;16.20;99.90
20139;DHT22;10230;51.502;10.800;2023-05-07T13:10:25;16.20;99.90
20139;DHT22;10230;51.502;10.800;2023-05-07T13:12:51;16.30;99.90
20139;DHT22;10230;51.502;10.800;2023-05-07T13:15:17;16.50;99.90
20139;DHT22;10230;51.502;10.800;2023-05-07T13:17:43;16.60;99.90
20139;DHT22;10230;51.502;10.800;2023-05-07T13:20:12;16.80;99.90
20139;DHT22;10230;51.502;10.800;2023-05-07T13:22:41;17.00;99.90
20139;DHT22;10230;51.502;10.800;2023-05-07T13:25:07;16.90;99.90
20139;DHT22;10230;51.502;10.800;2023-05-07T13:27:33;17.00;99.90
20139;DHT22;10230;51.502;10.800;2023-05-07T13:30:03;17.10;99.90
20139;DHT22;10230;51.502;10.800;2023-05-07T13:32:30;17.20;99.90
20139;DHT22;10230;51.502;10.800;2023-05-07T13:34:55;17.30;99.90
20139;DHT22;10230;51.502;10.800;2023-05-07T13:37:21;17.50;99.90
20139;DHT22;10230;51.502;10.800;2023-05-07T13:39:47;17.80;99.90
20139;DHT22;10230;51.502;10.800;2023-05-07T13:42:12;18.00;99.90
20139;DHT22;10230;51.502;10.800;2023-05-07T13:44:38;17.90;99.90
20139;DHT22;10230;51.502;10.800;2023-05-07T13:47:04;17.90;99.90
20139;DHT22;10230;51.502;10.800;2023-05-07T13:49:29;17.80;99.90
20139;DHT22;10230;51.502;10.800;2023-05-07T13:51:55;17.60;99.90
20139;DHT22;10230;51.502;10.800;2023-05-07T13:54:21;17.60;99.90
20139;DHT22;10230;51.502;10.800;2023-05-07T13:56:46;17.60;99.90
20139;DHT22;10230;51.502;10.800;2023-05-07T13:59:12;17.30;99.90
20139;DHT22;10230;51.502;10.800;2023-05-07T14:01:40;16.90;99.90
20139;DHT22;10230;51.502;10.800;2023-05-07T14:04:05;16.60;99.90
20139;DHT22;10230;51.502;10.800;2023-05-07T14:06:31;16.60;99.90
20139;DHT22;10230;51.502;10.800;2023-05-07T14:08:57;16.70;99.90
20139;DHT22;10230;51.502;10.800;2023-05-07T14:11:23;16.70;99.90
20139;DHT22;10230;51.502;10.800;2023-05-07T14:13:49;16.50;99.90
20139;DHT22;10230;51.502;10.800;2023-05-07T14:16:14;16.40;99.90
20139;DHT22;10230;51.502;10.800;2023-05-07T14:18:40;16.40;99.90
20139;DHT22;10230;51.502;10.800;2023-05-07T14:21:06;16.20;99.90
20139;DHT22;10230;51.502;10.800;2023-05-07T14:23:32;16.00;99.90
20139;DHT22;10230;51.502;10.800;2023-05-07T14:25:58;15.90;99.90
20139;DHT22;10230;51.502;10.800;2023-05-07T14:28:23;15.90;99.90
20139;DHT22;10230;51.502;10.800;2023-05-07T14:30:49;15.80;99.90
20139;DHT22;10230;51.502;10.800;2023-05-07T14:33:15;15.70;99.90
20139;DHT22;10230;51.502;10.800;2023-05-07T14:35:40;15.70;99.90
20139;DHT22;10230;51.502;10.800;2023-05-07T14:38:06;15.60;99.90
20139;DHT22;10230;51.502;10.800;2023-05-07T14:40:32;15.60;99.90
20139;DHT22;10230;51.502;10.800;2023-05-07T14:42:57;15.50;99.90
20139;DHT22;10230;51.502;10.800;2023-05-07T14:45:23;15.50;99.90
20139;DHT22;10230;51.502;10.800;2023-05-07T14:47:49;15.50;99.90
20139;DHT22;10230;51.502;10.800;2023-05-07T14:50:14;15.40;99.90
20139;DHT22;10230;51.502;10.800;2023-05-07T14:52:40;15.20;99.90
20139;DHT22;10230;51.502;10.800;2023-05-07T14:55:06;15.20;99.90
20139;DHT22;10230;51.502;10.800;2023-05-07T14:57:31;15.10;99.90
20139;DHT22;10230;51.502;10.800;2023-05-07T15:00:01;15.10;99.90
20139;DHT22;10230;51.502;10.800;2023-05-07T15:02:26;15.10;99.90
20139;DHT22;10230;51.502;10.800;2023-05-07T15:04:52;15.00;99.90
20139;DHT22;10230;51.502;10.800;2023-05-07T15:07:18;15.00;99.90
20139;DHT22;10230;51.502;10.800;2023-05-07T15:12:11;14.70;99.90
20139;DHT22;10230;51.502;10.800;2023-05-07T15:14:37;14.60;99.90
20139;DHT22;10230;51.502;10.800;2023-05-07T15:17:03;14.60;99.90
20139;DHT22;10230;51.502;10.800;2023-05-07T15:19:29;14.70;99.90
20139;DHT22;10230;51.502;10.800;2023-05-07T15:21:57;14.90;99.90
20139;DHT22;10230;51.502;10.800;2023-05-07T15:24:23;15.10;99.90
20139;DHT22;10230;51.502;10.800;2023-05-07T15:26:49;15.10;99.90
20139;DHT22;10230;51.502;10.800;2023-05-07T15:29:14;15.00;99.90
20139;DHT22;10230;51.502;10.800;2023-05-07T15:31:40;14.80;99.90
20139;DHT22;10230;51.502;10.800;2023-05-07T15:34:06;14.70;99.90
20139;DHT22;10230;51.502;10.800;2023-05-07T15:38:58;14.40;99.90
20139;DHT22;10230;51.502;10.800;2023-05-07T15:41:24;14.30;99.90
20139;DHT22;10230;51.502;10.800;2023-05-07T15:43:51;14.30;99.90
20139;DHT22;10230;51.502;10.800;2023-05-07T15:46:18;14.20;99.90
20139;DHT22;10230;51.502;10.800;2023-05-07T15:48:44;14.20;99.90
20139;DHT22;10230;51.502;10.800;2023-05-07T15:51:10;14.20;99.90
20139;DHT22;10230;51.502;10.800;2023-05-07T15:53:36;14.30;99.90
20139;DHT22;10230;51.502;10.800;2023-05-07T15:56:02;14.30;99.90
20139;DHT22;10230;51.502;10.800;2023-05-07T15:58:28;14.20;99.90
20139;DHT22;10230;51.502;10.800;2023-05-07T16:00:54;14.20;99.90
20139;DHT22;10230;51.502;10.800;2023-05-07T16:03:20;14.00;99.90
20139;DHT22;10230;51.502;10.800;2023-05-07T16:05:47;13.90;99.90
20139;DHT22;10230;51.502;10.800;2023-05-07T16:08:13;13.80;99.90
20139;DHT22;10230;51.502;10.800;2023-05-07T16:10:38;13.70;99.90
20139;DHT22;10230;51.502;10.800;2023-05-07T16:13:04;13.60;99.90
20139;DHT22;10230;51.502;10.800;2023-05-07T16:15:30;13.60;99.90
20139;DHT22;10230;51.502;10.800;2023-05-07T16:17:55;13.50;99.90